createdAt,value
2017-07-11T00:00:35.381Z,1001.83
2017-07-11T00:01:45.334Z,1001.82
2017-07-11T00:02:55.574Z,1001.86
2017-07-11T00:04:05.820Z,1001.95
2017-07-11T00:05:16.338Z,1001.94
2017-07-11T00:06:26.612Z,1001.89
2017-07-11T00:07:36.256Z,1002.05
2017-07-11T00:08:46.196Z,1001.97
2017-07-11T00:09:56.471Z,1001.95
2017-07-11T00:11:07.047Z,1001.96
2017-07-11T00:12:17.319Z,1001.96
2017-07-11T00:13:27.588Z,1001.84
2017-07-11T00:14:36.905Z,1001.91
2017-07-11T00:15:47.187Z,1001.84
2017-07-11T00:16:57.466Z,1002.04
2017-07-11T00:18:07.726Z,1002.03
2017-07-11T00:19:17.984Z,1002.02
2017-07-11T00:20:28.260Z,1002.09
2017-07-11T00:21:37.908Z,1002.15
2017-07-11T00:22:48.125Z,1001.85
2017-07-11T00:23:58.069Z,1002.19
2017-07-11T00:25:08.005Z,1002.28
2017-07-11T00:26:17.950Z,1002.28
2017-07-11T00:27:27.583Z,1002.38
2017-07-11T00:28:38.115Z,1002.26
2017-07-11T00:29:48.376Z,1002.36
2017-07-11T00:30:58.330Z,1002.5
2017-07-11T00:32:07.956Z,1002.51
2017-07-11T00:33:17.596Z,1002.74
2017-07-11T00:34:28.120Z,1002.63
2017-07-11T00:35:38.077Z,1002.7
2017-07-11T00:36:48.356Z,1002.56
2017-07-11T00:37:58.296Z,1002.52
2017-07-11T00:39:08.551Z,1002.44
2017-07-11T00:40:18.820Z,1002.35
2017-07-11T00:41:29.082Z,1002.38
2017-07-11T00:42:39.361Z,1002.39
2017-07-11T00:43:49.637Z,1002.41
2017-07-11T00:44:59.610Z,1002.48
2017-07-11T00:46:09.805Z,1002.51
2017-07-11T00:47:20.068Z,1002.45
2017-07-11T00:48:30.349Z,1002.46
2017-07-11T00:49:40.310Z,1002.47
2017-07-11T00:50:50.631Z,1002.49
2017-07-11T00:52:01.174Z,1002.45
2017-07-11T00:53:11.446Z,1002.46
2017-07-11T00:54:21.407Z,1002.43
2017-07-11T00:55:31.359Z,1002.49
2017-07-11T00:56:41.304Z,1002.5
2017-07-11T00:57:51.185Z,1002.56
2017-07-11T00:59:01.130Z,1002.55
2017-07-11T01:00:11.410Z,1002.61
2017-07-11T01:01:21.375Z,1002.55
2017-07-11T01:02:31.635Z,1002.56
2017-07-11T01:03:41.837Z,1002.49
2017-07-11T01:04:52.103Z,1002.52
2017-07-11T01:06:01.742Z,1002.49
2017-07-11T01:07:11.707Z,1002.48
2017-07-11T01:08:21.964Z,1002.47
2017-07-11T01:09:32.524Z,1002.5
2017-07-11T01:10:42.469Z,1002.47
2017-07-11T01:11:52.423Z,1002.5
2017-07-11T01:13:02.690Z,1002.47
2017-07-11T01:14:12.956Z,1002.54
2017-07-11T01:15:23.484Z,1002.55
2017-07-11T01:16:33.761Z,1002.52
2017-07-11T01:17:44.030Z,1002.53
2017-07-11T01:18:53.985Z,1002.44
2017-07-11T01:20:03.930Z,1002.59
2017-07-11T01:21:14.458Z,1002.59
2017-07-11T01:22:24.097Z,1002.54
2017-07-11T01:23:34.041Z,1002.59
2017-07-11T01:24:44.319Z,1002.66
2017-07-11T01:25:54.281Z,1002.6
2017-07-11T01:27:04.478Z,1002.67
2017-07-11T01:28:14.750Z,1002.62
2017-07-11T01:29:25.037Z,1002.71
2017-07-11T01:30:35.295Z,1002.64
2017-07-11T01:31:45.558Z,1002.61
2017-07-11T01:32:56.128Z,1002.6
2017-07-11T01:34:06.407Z,1002.63
2017-07-11T01:35:16.363Z,1002.51
2017-07-11T01:36:26.637Z,1002.54
2017-07-11T01:37:36.261Z,1002.47
2017-07-11T01:38:46.777Z,1002.49
2017-07-11T01:39:56.398Z,1002.44
2017-07-11T01:41:06.343Z,1002.44
2017-07-11T01:42:15.985Z,1002.56
2017-07-11T01:43:26.254Z,1002.52
2017-07-11T01:44:36.150Z,1002.5
2017-07-11T01:45:46.107Z,1002.52
2017-07-11T01:46:55.746Z,1002.46
2017-07-11T01:48:05.059Z,1002.54
2017-07-11T01:49:15.326Z,1002.55
2017-07-11T01:50:25.578Z,1002.55
2017-07-11T01:51:35.841Z,1002.65
2017-07-11T01:52:45.785Z,1002.64
2017-07-11T01:53:56.051Z,1002.7
2017-07-11T01:55:06.299Z,1002.68
2017-07-11T01:56:16.549Z,1002.66
2017-07-11T01:57:26.826Z,1002.7
2017-07-11T01:58:36.776Z,1002.79
2017-07-11T01:59:46.418Z,1002.92
2017-07-11T02:00:56.387Z,1002.77
2017-07-11T02:02:06.918Z,1002.8
2017-07-11T02:03:16.557Z,1003
2017-07-11T02:04:26.574Z,1002.82
2017-07-11T02:05:36.529Z,1002.76
2017-07-11T02:06:46.783Z,1002.75
2017-07-11T02:07:57.297Z,1002.77
2017-07-11T02:09:07.283Z,1002.7
2017-07-11T02:10:17.550Z,1002.8
2017-07-11T02:11:27.809Z,1002.71
2017-07-11T02:12:38.080Z,1002.78
2017-07-11T02:13:48.607Z,1002.75
2017-07-11T02:14:58.879Z,1002.91
2017-07-11T02:16:09.179Z,1002.78
2017-07-11T02:17:18.491Z,1002.8
2017-07-11T02:18:28.746Z,1002.79
2017-07-11T02:19:39.263Z,1002.8
2017-07-11T02:20:49.212Z,1002.8
2017-07-11T02:21:59.155Z,1002.8
2017-07-11T02:23:08.461Z,1002.94
2017-07-11T02:24:18.397Z,1003.04
2017-07-11T02:25:28.942Z,1002.85
2017-07-11T02:26:39.211Z,1002.9
2017-07-11T02:27:49.475Z,1002.88
2017-07-11T02:28:59.738Z,1002.87
2017-07-11T02:30:10.012Z,1002.89
2017-07-11T02:31:20.537Z,1002.85
2017-07-11T02:32:30.486Z,1002.94
2017-07-11T02:33:40.756Z,1002.86
2017-07-11T02:34:51.056Z,1002.84
2017-07-11T02:36:01.339Z,1002.83
2017-07-11T02:37:11.899Z,1002.96
2017-07-11T02:38:21.833Z,1002.89
2017-07-11T02:39:32.093Z,1002.96
2017-07-11T02:40:41.716Z,1002.9
2017-07-11T02:41:51.970Z,1002.91
2017-07-11T02:43:02.162Z,1002.92
2017-07-11T02:44:11.477Z,1003.01
2017-07-11T02:45:21.746Z,1002.86
2017-07-11T02:46:32.013Z,1002.86
2017-07-11T02:47:42.289Z,1002.77
2017-07-11T02:48:52.465Z,1002.94
2017-07-11T02:50:02.736Z,1002.82
2017-07-11T02:51:12.710Z,1002.89
2017-07-11T02:52:22.986Z,1003
2017-07-11T02:53:33.259Z,1002.88
2017-07-11T02:54:43.776Z,1002.82
2017-07-11T02:55:54.034Z,1002.85
2017-07-11T02:57:04.308Z,1002.94
2017-07-11T02:58:14.568Z,1002.84
2017-07-11T02:59:24.828Z,1002.88
2017-07-11T03:00:35.342Z,1002.99
2017-07-11T03:01:45.288Z,1003.01
2017-07-11T03:02:55.237Z,1003.02
2017-07-11T03:04:05.509Z,1003.02
2017-07-11T03:05:15.795Z,1003
2017-07-11T03:06:26.321Z,1002.99
2017-07-11T03:07:36.589Z,1002.96
2017-07-11T03:08:46.865Z,1002.93
2017-07-11T03:09:57.127Z,1002.96
2017-07-11T03:11:07.394Z,1002.99
2017-07-11T03:12:17.899Z,1002.92
2017-07-11T03:13:28.155Z,1003
2017-07-11T03:14:38.426Z,1003
2017-07-11T03:15:48.731Z,1003.03
2017-07-11T03:16:58.691Z,1003.06
2017-07-11T03:18:08.887Z,1003.01
2017-07-11T03:19:19.153Z,1003.12
2017-07-11T03:20:29.099Z,1003.18
2017-07-11T03:21:39.363Z,1003.21
2017-07-11T03:22:49.649Z,1003.25
2017-07-11T03:24:00.203Z,1003.29
2017-07-11T03:25:10.477Z,1003.33
2017-07-11T03:26:20.744Z,1003.37
2017-07-11T03:27:30.700Z,1003.4
2017-07-11T03:28:40.649Z,1003.46
2017-07-11T03:29:50.544Z,1003.4
2017-07-11T03:31:00.490Z,1003.42
2017-07-11T03:32:10.767Z,1003.41
2017-07-11T03:33:21.053Z,1003.5
2017-07-11T03:34:31.306Z,1003.49
2017-07-11T03:35:41.857Z,1003.51
2017-07-11T03:36:51.811Z,1003.48
2017-07-11T03:38:02.077Z,1003.5
2017-07-11T03:39:12.338Z,1003.5
2017-07-11T03:40:22.612Z,1003.52
2017-07-11T03:41:33.133Z,1003.58
2017-07-11T03:42:43.075Z,1003.62
2017-07-11T03:43:53.349Z,1003.57
2017-07-11T03:45:03.618Z,1003.54
2017-07-11T03:46:13.577Z,1003.57
2017-07-11T03:47:23.793Z,1003.57
2017-07-11T03:48:33.758Z,1003.65
2017-07-11T03:49:44.047Z,1003.66
2017-07-11T03:50:54.327Z,1003.66
2017-07-11T03:52:04.612Z,1003.72
2017-07-11T03:53:15.120Z,1003.77
2017-07-11T03:54:25.383Z,1003.83
2017-07-11T03:55:35.644Z,1003.85
2017-07-11T03:56:45.282Z,1003.74
2017-07-11T03:57:55.542Z,1003.76
2017-07-11T03:59:05.750Z,1003.77
2017-07-11T04:00:16.032Z,1003.76
2017-07-11T04:01:25.984Z,1003.79
2017-07-11T04:02:35.939Z,1003.8
2017-07-11T04:03:45.875Z,1003.8
2017-07-11T04:04:56.395Z,1003.78
2017-07-11T04:06:06.658Z,1003.81
2017-07-11T04:07:16.996Z,1003.8
2017-07-11T04:08:27.254Z,1003.8
2017-07-11T04:09:37.524Z,1003.79
2017-07-11T04:10:47.777Z,1003.82
2017-07-11T04:11:58.049Z,1003.84
2017-07-11T04:13:08.332Z,1003.81
2017-07-11T04:14:18.596Z,1003.89
2017-07-11T04:15:28.858Z,1003.85
2017-07-11T04:16:39.383Z,1003.9
2017-07-11T04:17:49.661Z,1003.86
2017-07-11T04:18:59.930Z,1003.89
2017-07-11T04:20:10.190Z,1003.91
2017-07-11T04:21:20.140Z,1003.89
2017-07-11T04:22:30.659Z,1003.83
2017-07-11T04:23:40.660Z,1003.83
2017-07-11T04:24:50.942Z,1003.86
2017-07-11T04:26:01.216Z,1003.85
2017-07-11T04:27:11.178Z,1003.86
2017-07-11T04:28:21.703Z,1003.9
2017-07-11T04:29:31.972Z,1003.89
2017-07-11T04:30:41.922Z,1003.97
2017-07-11T04:31:51.868Z,1003.99
2017-07-11T04:33:02.134Z,1003.97
2017-07-11T04:34:12.343Z,1003.98
2017-07-11T04:35:22.312Z,1003.92
2017-07-11T04:36:32.583Z,1003.96
2017-07-11T04:37:42.833Z,1003.92
2017-07-11T04:38:52.796Z,1003.94
2017-07-11T04:40:03.320Z,1003.94
2017-07-11T04:41:13.569Z,1003.95
2017-07-11T04:42:23.848Z,1003.95
2017-07-11T04:43:34.120Z,1003.95
2017-07-11T04:44:44.389Z,1003.92
2017-07-11T04:45:54.646Z,1003.91
2017-07-11T04:47:04.980Z,1003.96
2017-07-11T04:48:14.951Z,1003.92
2017-07-11T04:49:24.594Z,1003.93
2017-07-11T04:50:34.861Z,1003.95
2017-07-11T04:51:45.379Z,1003.97
2017-07-11T04:52:55.621Z,1004.03
2017-07-11T04:54:05.904Z,1004.04
2017-07-11T04:55:16.184Z,1004.11
2017-07-11T04:56:26.137Z,1004.1
2017-07-11T04:57:36.656Z,1004.15
2017-07-11T04:58:46.929Z,1004.18
2017-07-11T04:59:56.886Z,1004.26
2017-07-11T05:01:06.856Z,1004.2
2017-07-11T05:02:16.813Z,1004.21
2017-07-11T05:03:27.318Z,1004.2
2017-07-11T05:04:37.589Z,1004.19
2017-07-11T05:05:47.874Z,1004.24
2017-07-11T05:06:58.170Z,1004.18
2017-07-11T05:08:08.745Z,1004.22
2017-07-11T05:09:18.957Z,1004.22
2017-07-11T05:10:29.242Z,1004.17
2017-07-11T05:11:38.886Z,1004.16
2017-07-11T05:12:49.168Z,1004.19
2017-07-11T05:13:59.433Z,1004.17
2017-07-11T05:15:09.646Z,1004.18
2017-07-11T05:16:19.930Z,1004.17
2017-07-11T05:17:30.190Z,1004.19
2017-07-11T05:18:40.135Z,1004.2
2017-07-11T05:19:50.396Z,1004.17
2017-07-11T05:21:00.975Z,1004.18
2017-07-11T05:22:11.244Z,1004.28
2017-07-11T05:23:21.517Z,1004.25
2017-07-11T05:24:31.775Z,1004.24
2017-07-11T05:25:42.041Z,1004.29
2017-07-11T05:26:52.546Z,1004.23
2017-07-11T05:28:02.188Z,1004.28
2017-07-11T05:29:12.121Z,1004.26
2017-07-11T05:30:22.404Z,1004.25
2017-07-11T05:31:32.379Z,1004.26
2017-07-11T05:32:42.909Z,1004.29
2017-07-11T05:33:53.183Z,1004.25
2017-07-11T05:35:03.442Z,1004.23
2017-07-11T05:36:13.463Z,1004.2
2017-07-11T05:37:23.097Z,1004.23
2017-07-11T05:38:33.626Z,1004.3
2017-07-11T05:39:43.577Z,1004.32
2017-07-11T05:40:53.835Z,1004.3
2017-07-11T05:42:03.480Z,1004.3
2017-07-11T05:43:13.760Z,1004.22
2017-07-11T05:44:24.277Z,1004.26
2017-07-11T05:45:34.545Z,1004.24
2017-07-11T05:46:44.507Z,1004.25
2017-07-11T05:47:54.778Z,1004.25
2017-07-11T05:49:05.073Z,1004.31
2017-07-11T05:50:15.273Z,1004.27
2017-07-11T05:51:25.553Z,1004.3
2017-07-11T05:52:35.882Z,1004.26
2017-07-11T05:53:46.177Z,1004.24
2017-07-11T05:54:56.446Z,1004.24
2017-07-11T05:56:07.015Z,1004.31
2017-07-11T05:57:17.284Z,1004.31
2017-07-11T05:58:27.578Z,1004.28
2017-07-11T05:59:37.521Z,1004.28
2017-07-11T06:00:47.808Z,1004.31
2017-07-11T06:01:58.339Z,1004.33
2017-07-11T06:03:08.283Z,1004.34
2017-07-11T06:04:18.248Z,1004.34
2017-07-11T06:05:28.524Z,1004.38
2017-07-11T06:06:38.799Z,1004.4
2017-07-11T06:07:49.295Z,1004.36
2017-07-11T06:08:59.563Z,1004.37
2017-07-11T06:10:09.834Z,1004.4
2017-07-11T06:11:20.119Z,1004.38
2017-07-11T06:12:30.399Z,1004.4
2017-07-11T06:13:40.611Z,1004.41
2017-07-11T06:14:50.882Z,1004.45
2017-07-11T06:16:01.299Z,1004.45
2017-07-11T06:17:11.272Z,1004.42
2017-07-11T06:18:21.231Z,1004.42
2017-07-11T06:19:31.766Z,1004.39
2017-07-11T06:20:42.042Z,1004.42
2017-07-11T06:21:52.313Z,1004.4
2017-07-11T06:23:02.591Z,1004.43
2017-07-11T06:24:12.911Z,1004.44
2017-07-11T06:25:27.750Z,1004.4
2017-07-11T06:26:38.016Z,1004.39
2017-07-11T06:27:47.983Z,1004.44
2017-07-11T06:28:58.260Z,1004.41
2017-07-11T06:30:08.532Z,1004.44
2017-07-11T06:31:19.089Z,1004.44
2017-07-11T06:32:29.113Z,1004.42
2017-07-11T06:33:39.392Z,1004.45
2017-07-11T06:34:49.348Z,1004.46
2017-07-11T06:35:59.312Z,1004.46
2017-07-11T06:37:09.886Z,1004.44
2017-07-11T06:38:20.145Z,1004.51
2017-07-11T06:39:30.420Z,1004.51
2017-07-11T06:40:40.723Z,1004.5
2017-07-11T06:41:51.000Z,1004.49
2017-07-11T06:43:01.535Z,1004.49
2017-07-11T06:44:11.484Z,1004.49
2017-07-11T06:45:21.130Z,1004.5
2017-07-11T06:46:31.414Z,1004.48
2017-07-11T06:47:41.706Z,1004.45
2017-07-11T06:48:52.244Z,1004.48
2017-07-11T06:50:02.198Z,1004.46
2017-07-11T06:51:12.467Z,1004.47
2017-07-11T06:52:21.788Z,1004.48
2017-07-11T06:53:32.064Z,1004.47
2017-07-11T06:54:42.598Z,1004.48
2017-07-11T06:55:52.565Z,1004.46
2017-07-11T06:57:02.849Z,1004.53
2017-07-11T06:58:13.143Z,1004.52
2017-07-11T06:59:23.489Z,1004.57
2017-07-11T07:00:33.700Z,1004.56
2017-07-11T07:01:43.981Z,1004.55
2017-07-11T07:02:54.262Z,1004.65
2017-07-11T07:04:04.537Z,1004.6
2017-07-11T07:05:14.801Z,1004.55
2017-07-11T07:06:25.015Z,1004.59
2017-07-11T07:07:34.973Z,1004.62
2017-07-11T07:08:45.273Z,1004.6
2017-07-11T07:09:55.239Z,1004.61
2017-07-11T07:11:05.514Z,1004.62
2017-07-11T07:12:16.077Z,1004.65
2017-07-11T07:13:26.362Z,1004.62
2017-07-11T07:14:36.626Z,1004.66
2017-07-11T07:15:46.325Z,1004.78
2017-07-11T07:16:56.611Z,1004.66
2017-07-11T07:18:06.497Z,1004.68
2017-07-11T07:19:16.800Z,1004.68
2017-07-11T07:20:26.770Z,1004.72
2017-07-11T07:21:37.053Z,1004.73
2017-07-11T07:22:47.325Z,1004.8
2017-07-11T07:23:57.542Z,1004.75
2017-07-11T07:25:07.807Z,1004.77
2017-07-11T07:26:18.100Z,1004.78
2017-07-11T07:27:28.382Z,1004.72
2017-07-11T07:28:38.033Z,1004.73
2017-07-11T07:29:48.310Z,1004.78
2017-07-11T07:30:58.265Z,1004.77
2017-07-11T07:32:08.541Z,1004.79
2017-07-11T07:33:18.829Z,1004.81
2017-07-11T07:34:29.099Z,1004.79
2017-07-11T07:35:39.289Z,1004.88
2017-07-11T07:36:49.563Z,1004.84
2017-07-11T07:37:59.846Z,1004.87
2017-07-11T07:39:10.113Z,1004.87
2017-07-11T07:40:20.469Z,1004.87
2017-07-11T07:41:31.059Z,1004.77
2017-07-11T07:42:41.335Z,1004.86
2017-07-11T07:43:51.587Z,1004.83
2017-07-11T07:45:01.871Z,1004.81
2017-07-11T07:46:12.135Z,1004.81
2017-07-11T07:47:22.655Z,1004.8
2017-07-11T07:48:32.941Z,1004.82
2017-07-11T07:49:42.895Z,1004.81
2017-07-11T07:50:53.170Z,1004.78
2017-07-11T07:52:03.138Z,1004.75
2017-07-11T07:53:13.342Z,1004.76
2017-07-11T07:54:23.294Z,1004.78
2017-07-11T07:55:33.566Z,1004.81
2017-07-11T07:56:44.069Z,1004.78
2017-07-11T07:57:54.343Z,1004.83
2017-07-11T07:59:04.539Z,1004.81
2017-07-11T08:00:14.825Z,1004.79
2017-07-11T08:01:25.099Z,1004.81
2017-07-11T08:02:35.393Z,1004.8
2017-07-11T08:03:45.675Z,1004.85
2017-07-11T08:04:56.197Z,1004.88
2017-07-11T08:06:06.478Z,1004.9
2017-07-11T08:07:16.759Z,1004.87
2017-07-11T08:08:26.718Z,1004.87
2017-07-11T08:09:36.980Z,1004.9
2017-07-11T08:10:47.184Z,1004.89
2017-07-11T08:11:57.445Z,1004.86
2017-07-11T08:13:07.731Z,1004.87
2017-07-11T08:14:18.090Z,1004.87
2017-07-11T08:15:28.382Z,1004.96
2017-07-11T08:16:38.926Z,1004.94
2017-07-11T08:17:49.214Z,1004.97
2017-07-11T08:18:59.511Z,1004.93
2017-07-11T08:20:09.165Z,1004.96
2017-07-11T08:21:19.133Z,1004.97
2017-07-11T08:22:29.667Z,1004.95
2017-07-11T08:23:39.948Z,1004.94
2017-07-11T08:24:49.921Z,1004.95
2017-07-11T08:25:59.885Z,1004.91
2017-07-11T08:27:10.156Z,1004.89
2017-07-11T08:28:20.687Z,1004.93
2017-07-11T08:29:30.975Z,1004.97
2017-07-11T08:30:41.229Z,1004.97
2017-07-11T08:31:51.220Z,1004.94
2017-07-11T08:33:01.497Z,1004.97
2017-07-11T08:34:12.023Z,1005.02
2017-07-11T08:35:22.303Z,1004.96
2017-07-11T08:36:32.578Z,1005.01
2017-07-11T08:37:42.853Z,1005.05
2017-07-11T08:38:53.119Z,1005.01
2017-07-11T08:40:03.664Z,1005.06
2017-07-11T08:41:13.950Z,1005
2017-07-11T08:42:23.924Z,1005.06
2017-07-11T08:43:34.185Z,1005.02
2017-07-11T08:44:44.534Z,1005.08
2017-07-11T08:45:55.101Z,1005.01
2017-07-11T08:47:05.387Z,1005.07
2017-07-11T08:48:15.662Z,1005.16
2017-07-11T08:49:25.939Z,1005.11
2017-07-11T08:50:35.915Z,1005.17
2017-07-11T08:51:46.116Z,1005.19
2017-07-11T08:52:56.089Z,1005.14
2017-07-11T08:54:06.030Z,1005.16
2017-07-11T08:55:15.992Z,1005.19
2017-07-11T08:56:25.961Z,1005.15
2017-07-11T08:57:36.489Z,1005.17
2017-07-11T08:58:46.472Z,1005.22
2017-07-11T08:59:56.433Z,1005.28
2017-07-11T09:01:06.413Z,1005.23
2017-07-11T09:02:16.047Z,1005.17
2017-07-11T09:03:26.601Z,1005.22
2017-07-11T09:04:36.882Z,1005.24
2017-07-11T09:05:46.866Z,1005.21
2017-07-11T09:06:57.147Z,1005.17
2017-07-11T09:08:07.110Z,1005.18
2017-07-11T09:09:17.330Z,1005.18
2017-07-11T09:10:27.641Z,1005.23
2017-07-11T09:11:37.939Z,1005.22
2017-07-11T09:12:48.214Z,1005.22
2017-07-11T09:13:58.510Z,1005.27
2017-07-11T09:15:09.029Z,1005.24
2017-07-11T09:16:19.012Z,1005.21
2017-07-11T09:17:29.503Z,1005.21
2017-07-11T09:18:39.506Z,1005.22
2017-07-11T09:19:49.807Z,1005.2
2017-07-11T09:21:00.356Z,1005.3
2017-07-11T09:22:10.305Z,1005.21
2017-07-11T09:23:20.661Z,1005.21
2017-07-11T09:24:30.949Z,1005.19
2017-07-11T09:25:40.658Z,1005.19
2017-07-11T09:26:51.183Z,1005.15
2017-07-11T09:28:01.465Z,1005.18
2017-07-11T09:29:11.751Z,1005.14
2017-07-11T09:30:21.403Z,1005.18
2017-07-11T09:31:31.689Z,1005.17
2017-07-11T09:32:42.215Z,1005.13
2017-07-11T09:33:52.200Z,1005.15
2017-07-11T09:35:02.506Z,1005.17
2017-07-11T09:36:12.790Z,1005.11
2017-07-11T09:37:23.089Z,1005.08
2017-07-11T09:38:33.645Z,1005.1
2017-07-11T09:39:43.673Z,1005.11
2017-07-11T09:40:53.652Z,1005.1
2017-07-11T09:42:03.624Z,1005.16
2017-07-11T09:43:13.601Z,1005.19
2017-07-11T09:44:24.131Z,1005.15
2017-07-11T09:45:34.158Z,1005.12
2017-07-11T09:46:43.829Z,1005.12
2017-07-11T09:47:54.119Z,1005.12
2017-07-11T09:49:04.404Z,1005.13
2017-07-11T09:50:14.620Z,1005.12
2017-07-11T09:51:24.572Z,1005.23
2017-07-11T09:52:34.877Z,1005.19
2017-07-11T09:53:45.179Z,1005.3
2017-07-11T09:54:55.504Z,1005.21
2017-07-11T09:56:06.060Z,1005.23
2017-07-11T09:57:16.366Z,1005.21
2017-07-11T09:58:26.061Z,1005.24
2017-07-11T09:59:36.357Z,1005.2
2017-07-11T10:00:46.668Z,1005.09
2017-07-11T10:01:57.249Z,1005.28
2017-07-11T10:03:07.232Z,1005.23
2017-07-11T10:04:17.207Z,1005.27
2017-07-11T10:05:27.553Z,1005.21
2017-07-11T10:06:37.868Z,1005.18
2017-07-11T10:07:48.433Z,1005.1
2017-07-11T10:08:58.818Z,1005.13
2017-07-11T10:10:08.800Z,1005.2
2017-07-11T10:11:19.106Z,1005.26
2017-07-11T10:12:29.380Z,1005.22
2017-07-11T10:13:39.932Z,1005.29
2017-07-11T10:14:50.244Z,1005.28
2017-07-11T10:16:00.540Z,1005.28
2017-07-11T10:17:10.814Z,1005.26
2017-07-11T10:18:20.450Z,1005.25
2017-07-11T10:19:31.066Z,1005.28
2017-07-11T10:20:41.588Z,1005.12
2017-07-11T10:21:51.557Z,1005.14
2017-07-11T10:23:01.530Z,1005.14
2017-07-11T10:24:11.826Z,1005.15
2017-07-11T10:25:22.399Z,1005.18
2017-07-11T10:26:32.688Z,1005.26
2017-07-11T10:27:42.998Z,1005.26
2017-07-11T10:28:52.974Z,1005.28
2017-07-11T10:30:03.270Z,1005.24
2017-07-11T10:31:13.812Z,1005.24
2017-07-11T10:32:23.846Z,1005.26
2017-07-11T10:33:34.155Z,1005.3
2017-07-11T10:34:43.805Z,1005.23
2017-07-11T10:35:54.107Z,1005.32
2017-07-11T10:37:04.634Z,1005.29
2017-07-11T10:38:14.911Z,1005.32
2017-07-11T10:39:25.232Z,1005.29
2017-07-11T10:40:35.527Z,1005.34
2017-07-11T10:41:45.504Z,1005.3
2017-07-11T10:42:56.096Z,1005.3
2017-07-11T10:44:06.057Z,1005.3
2017-07-11T10:45:16.037Z,1005.27
2017-07-11T10:46:26.367Z,1005.29
2017-07-11T10:47:36.329Z,1005.24
2017-07-11T10:48:46.861Z,1005.2
2017-07-11T10:49:56.830Z,1005.25
2017-07-11T10:51:07.172Z,1005.26
2017-07-11T10:52:17.310Z,1005.3
2017-07-11T10:53:27.587Z,1005.34
2017-07-11T10:54:38.113Z,1005.3
2017-07-11T10:55:48.389Z,1005.37
2017-07-11T10:56:58.365Z,1005.26
2017-07-11T10:58:08.647Z,1005.34
2017-07-11T10:59:18.941Z,1005.33
2017-07-11T11:00:29.165Z,1005.26
2017-07-11T11:01:39.479Z,1005.24
2017-07-11T11:02:49.769Z,1005.28
2017-07-11T11:04:00.087Z,1005.3
2017-07-11T11:05:10.067Z,1005.33
2017-07-11T11:06:20.643Z,1005.24
2017-07-11T11:07:30.928Z,1005.23
2017-07-11T11:08:40.577Z,1005.3
2017-07-11T11:09:50.855Z,1005.27
2017-07-11T11:11:00.493Z,1005.23
2017-07-11T11:12:10.713Z,1005.28
2017-07-11T11:13:20.048Z,1005.28
2017-07-11T11:14:30.334Z,1005.3
2017-07-11T11:15:40.635Z,1005.32
2017-07-11T11:16:50.281Z,1005.24
2017-07-11T11:18:00.500Z,1005.3
2017-07-11T11:19:10.479Z,1005.37
2017-07-11T11:20:20.764Z,1005.4
2017-07-11T11:21:31.060Z,1005.33
2017-07-11T11:22:41.353Z,1005.41
2017-07-11T11:23:51.567Z,1005.37
2017-07-11T11:25:01.870Z,1005.37
2017-07-11T11:26:12.159Z,1005.35
2017-07-11T11:27:22.098Z,1005.33
2017-07-11T11:28:32.371Z,1005.3
2017-07-11T11:29:42.596Z,1005.3
2017-07-11T11:30:52.901Z,1005.33
2017-07-11T11:32:02.871Z,1005.37
2017-07-11T11:33:12.841Z,1005.29
2017-07-11T11:34:23.131Z,1005.33
2017-07-11T11:35:33.370Z,1005.34
2017-07-11T11:36:43.343Z,1005.28
2017-07-11T11:37:53.332Z,1005.26
2017-07-11T11:39:03.620Z,1005.27
2017-07-11T11:40:13.936Z,1005.27
2017-07-11T11:41:24.516Z,1005.22
2017-07-11T11:42:34.794Z,1005.21
2017-07-11T11:43:45.124Z,1005.2
2017-07-11T11:44:55.418Z,1005.23
2017-07-11T11:46:05.714Z,1005.26
2017-07-11T11:47:16.292Z,1005.2
2017-07-11T11:48:26.593Z,1005.14
2017-07-11T11:49:36.913Z,1005.17
2017-07-11T11:50:47.192Z,1005.14
2017-07-11T11:51:57.492Z,1005.1
2017-07-11T11:53:08.037Z,1005.11
2017-07-11T11:54:17.997Z,1005.06
2017-07-11T11:55:28.301Z,1005.13
2017-07-11T11:56:38.578Z,1005.1
2017-07-11T11:57:48.891Z,1005.04
2017-07-11T11:58:59.439Z,1005.08
2017-07-11T12:00:09.726Z,1005.09
2017-07-11T12:01:20.017Z,1005.06
2017-07-11T12:02:29.973Z,1005.12
2017-07-11T12:03:39.645Z,1005.11
2017-07-11T12:04:50.189Z,1005.18
2017-07-11T12:05:59.872Z,1005.12
2017-07-11T12:07:10.154Z,1005.03
2017-07-11T12:08:20.111Z,1005.1
2017-07-11T12:09:30.392Z,1005.06
2017-07-11T12:10:40.619Z,1005.11
2017-07-11T12:11:50.901Z,1005.13
2017-07-11T12:13:01.198Z,1005.1
2017-07-11T12:14:11.165Z,1005.11
2017-07-11T12:15:21.131Z,1005.11
2017-07-11T12:16:31.366Z,1005.15
2017-07-11T12:17:41.642Z,1005.03
2017-07-11T12:18:51.926Z,1005.12
2017-07-11T12:20:01.906Z,1005.06
2017-07-11T12:21:12.202Z,1005.09
2017-07-11T12:22:22.723Z,1005.13
2017-07-11T12:23:33.003Z,1005.14
2017-07-11T12:24:43.285Z,1005.16
2017-07-11T12:25:53.607Z,1005.14
2017-07-11T12:27:03.894Z,1005.08
2017-07-11T12:28:14.420Z,1005.13
2017-07-11T12:29:24.391Z,1005.02
2017-07-11T12:30:34.347Z,1005.1
2017-07-11T12:31:44.632Z,1005.02
2017-07-11T12:32:54.950Z,1005.05
2017-07-11T12:34:05.465Z,1005.1
2017-07-11T12:35:15.120Z,1005.07
2017-07-11T12:36:25.414Z,1005.05
2017-07-11T12:37:35.378Z,1005
2017-07-11T12:38:45.346Z,1005.04
2017-07-11T12:39:55.885Z,1004.97
2017-07-11T12:41:05.851Z,1004.96
2017-07-11T12:42:15.842Z,1004.94
2017-07-11T12:43:26.121Z,1004.96
2017-07-11T12:44:36.418Z,1004.94
2017-07-11T12:45:46.973Z,1004.99
2017-07-11T12:46:57.264Z,1004.94
2017-07-11T12:48:07.551Z,1004.97
2017-07-11T12:49:17.853Z,1004.98
2017-07-11T12:50:28.161Z,1005.01
2017-07-11T12:51:38.701Z,1005.04
2017-07-11T12:52:48.660Z,1004.94
2017-07-11T12:53:58.620Z,1004.95
2017-07-11T12:55:08.934Z,1004.95
2017-07-11T12:56:19.245Z,1004.91
2017-07-11T12:57:29.465Z,1004.89
2017-07-11T12:58:39.493Z,1004.87
2017-07-11T12:59:49.991Z,1004.96
2017-07-11T13:00:59.963Z,1004.89
2017-07-11T13:02:09.949Z,1004.89
2017-07-11T13:03:20.491Z,1004.93
2017-07-11T13:04:30.451Z,1004.93
2017-07-11T13:05:40.742Z,1004.97
2017-07-11T13:06:51.021Z,1004.8
2017-07-11T13:08:01.302Z,1004.91
2017-07-11T13:09:11.837Z,1004.85
2017-07-11T13:10:22.159Z,1004.92
2017-07-11T13:11:32.487Z,1004.97
2017-07-11T13:12:42.466Z,1004.89
2017-07-11T13:13:52.784Z,1004.89
2017-07-11T13:15:03.020Z,1004.9
2017-07-11T13:16:13.297Z,1004.86
2017-07-11T13:17:23.593Z,1004.9
2017-07-11T13:18:34.079Z,1004.9
2017-07-11T13:19:44.361Z,1004.88
2017-07-11T13:20:54.904Z,1004.88
2017-07-11T13:22:04.877Z,1004.88
2017-07-11T13:23:15.153Z,1004.83
2017-07-11T13:24:25.104Z,1004.8
2017-07-11T13:25:35.061Z,1004.8
2017-07-11T13:26:45.268Z,1004.78
2017-07-11T13:27:55.547Z,1004.8
2017-07-11T13:29:05.551Z,1004.8
2017-07-11T13:30:15.856Z,1004.8
2017-07-11T13:31:26.157Z,1004.83
2017-07-11T13:32:36.680Z,1004.82
2017-07-11T13:33:46.934Z,1004.75
2017-07-11T13:34:57.225Z,1004.75
2017-07-11T13:36:07.528Z,1004.77
2017-07-11T13:37:17.503Z,1004.82
2017-07-11T13:38:28.021Z,1004.76
2017-07-11T13:39:38.312Z,1004.77
2017-07-11T13:40:48.590Z,1004.77
2017-07-11T13:41:58.553Z,1004.77
2017-07-11T13:43:08.882Z,1004.82
2017-07-11T13:44:19.436Z,1004.8
2017-07-11T13:45:29.726Z,1004.8
2017-07-11T13:46:39.069Z,1004.72
2017-07-11T13:47:48.729Z,1004.76
2017-07-11T13:48:58.683Z,1004.76
2017-07-11T13:50:09.207Z,1004.7
2017-07-11T13:51:19.506Z,1004.72
2017-07-11T13:52:29.820Z,1004.74
2017-07-11T13:53:40.094Z,1004.74
2017-07-11T13:54:50.390Z,1004.79
2017-07-11T13:56:00.584Z,1004.78
2017-07-11T13:57:10.910Z,1004.79
2017-07-11T13:58:21.197Z,1004.84
2017-07-11T13:59:31.699Z,1004.87
2017-07-11T14:00:41.987Z,1004.85
2017-07-11T14:01:52.527Z,1004.88
2017-07-11T14:03:02.505Z,1004.91
2017-07-11T14:04:12.796Z,1004.97
2017-07-11T14:05:23.066Z,1004.98
2017-07-11T14:06:33.034Z,1005.07
2017-07-11T14:07:42.929Z,1005.09
2017-07-11T14:08:53.211Z,1005.14
2017-07-11T14:10:03.506Z,1005.15
2017-07-11T14:11:13.489Z,1005.17
2017-07-11T14:12:23.794Z,1005.24
2017-07-11T14:13:34.337Z,1005.27